createdAt,value
2022-10-07T00:01:21.312Z,3.55
2022-10-07T00:03:49.655Z,3.15
2022-10-07T00:06:21.873Z,3.80
2022-10-07T00:11:24.038Z,3.08
2022-10-07T00:13:56.220Z,3.08
2022-10-07T00:18:56.537Z,3.10
2022-10-07T00:21:28.722Z,2.70
2022-10-07T00:26:29.251Z,3.08
2022-10-07T00:28:58.116Z,3.33
2022-10-07T00:31:29.969Z,2.67
2022-10-07T00:33:59.225Z,2.80
2022-10-07T00:36:30.953Z,3.72
2022-10-07T00:39:01.365Z,3.60
2022-10-07T00:41:32.855Z,2.65
2022-10-07T00:44:01.209Z,3.23
2022-10-07T00:46:34.756Z,3.13
2022-10-07T00:49:08.195Z,3.17
2022-10-07T00:51:38.480Z,2.60
2022-10-07T00:54:12.617Z,3.08
2022-10-07T00:56:42.444Z,3.28
2022-10-07T00:59:11.012Z,2.45
2022-10-07T01:01:42.141Z,2.55
2022-10-07T01:04:12.140Z,3.25
2022-10-07T01:06:42.885Z,3.50
2022-10-07T01:09:14.088Z,3.22
2022-10-07T01:11:51.908Z,2.85
2022-10-07T01:14:38.613Z,2.97
2022-10-07T01:17:12.377Z,2.47
2022-10-07T01:20:10.571Z,2.90
2022-10-07T01:22:50.992Z,3.10
2022-10-07T01:25:34.693Z,2.55
2022-10-07T01:28:10.582Z,2.47
2022-10-07T01:30:43.273Z,2.80
2022-10-07T01:33:17.423Z,3.40
2022-10-07T01:35:49.416Z,2.40
2022-10-07T01:38:23.369Z,2.35
2022-10-07T01:40:58.256Z,2.53
2022-10-07T01:43:28.366Z,2.60
2022-10-07T01:45:59.305Z,2.80
2022-10-07T01:48:27.649Z,2.97
2022-10-07T01:50:59.767Z,2.60
2022-10-07T01:53:44.669Z,2.35
2022-10-07T01:56:32.006Z,2.47
2022-10-07T01:59:24.280Z,2.28
2022-10-07T02:01:59.716Z,2.42
2022-10-07T02:04:44.635Z,2.42
2022-10-07T02:07:28.196Z,2.10
2022-10-07T02:10:04.268Z,3.40
2022-10-07T02:12:40.844Z,3.33
2022-10-07T02:15:17.799Z,2.72
2022-10-07T02:17:52.511Z,3.15
2022-10-07T02:20:25.796Z,2.22
2022-10-07T02:22:57.659Z,2.63
2022-10-07T02:25:29.204Z,2.30
2022-10-07T02:27:58.873Z,2.47
2022-10-07T02:30:29.468Z,2.38
2022-10-07T02:33:03.847Z,3.17
2022-10-07T02:35:40.829Z,2.60
2022-10-07T02:38:14.357Z,2.92
2022-10-07T02:40:53.780Z,2.38
2022-10-07T02:43:31.646Z,2.28
2022-10-07T02:46:08.228Z,2.70
2022-10-07T02:48:42.843Z,2.72
2022-10-07T02:51:21.322Z,2.45
2022-10-07T02:53:54.245Z,2.30
2022-10-07T02:56:26.871Z,2.35
2022-10-07T02:58:56.003Z,3.63
2022-10-07T03:01:32.819Z,2.20
2022-10-07T03:04:02.034Z,3.33
2022-10-07T03:06:30.612Z,2.95
2022-10-07T03:09:02.028Z,3.00
2022-10-07T03:11:30.383Z,2.20
2022-10-07T03:13:58.638Z,2.60
2022-10-07T03:16:28.718Z,2.20
2022-10-07T03:18:57.403Z,2.25
2022-10-07T03:21:34.424Z,2.47
2022-10-07T03:24:05.983Z,2.35
2022-10-07T03:26:41.485Z,2.63
2022-10-07T03:29:10.396Z,2.75
2022-10-07T03:31:41.282Z,3.30
2022-10-07T03:34:10.139Z,3.05
2022-10-07T03:36:39.684Z,2.67
2022-10-07T03:39:09.617Z,2.97
2022-10-07T03:41:38.464Z,2.60
2022-10-07T03:44:07.222Z,2.55
2022-10-07T03:46:35.663Z,2.33
2022-10-07T03:49:05.648Z,3.35
2022-10-07T03:51:36.078Z,2.80
2022-10-07T03:54:06.684Z,3.13
2022-10-07T03:56:35.877Z,2.70
2022-10-07T03:59:04.884Z,3.10
2022-10-07T04:01:33.536Z,2.63
2022-10-07T04:04:03.978Z,2.20
2022-10-07T04:06:36.730Z,2.53
2022-10-07T04:09:09.701Z,2.40
2022-10-07T04:11:40.681Z,2.75
2022-10-07T04:14:10.393Z,2.33
2022-10-07T04:16:40.465Z,2.28
2022-10-07T04:19:13.675Z,2.40
2022-10-07T04:21:43.211Z,2.53
2022-10-07T04:24:11.445Z,2.25
2022-10-07T04:26:39.689Z,3.33
2022-10-07T04:29:08.001Z,2.67
2022-10-07T04:31:37.428Z,2.45
2022-10-07T04:34:06.847Z,2.83
2022-10-07T04:36:42.983Z,2.42
2022-10-07T04:39:14.871Z,2.50
2022-10-07T04:41:57.047Z,2.30
2022-10-07T04:44:30.135Z,2.80
2022-10-07T04:47:06.454Z,2.70
2022-10-07T04:49:36.214Z,2.33
2022-10-07T04:52:08.207Z,3.17
2022-10-07T04:54:40.308Z,2.38
2022-10-07T04:57:10.083Z,2.30
2022-10-07T04:59:42.583Z,2.63
2022-10-07T05:02:12.723Z,2.90
2022-10-07T05:04:41.758Z,2.40
2022-10-07T05:07:11.555Z,2.15
2022-10-07T05:09:40.104Z,3.00
2022-10-07T05:12:08.983Z,3.10
2022-10-07T05:14:37.434Z,2.92
2022-10-07T05:17:06.307Z,3.25
2022-10-07T05:19:37.020Z,2.85
2022-10-07T05:22:06.248Z,3.47
2022-10-07T05:24:35.863Z,2.47
2022-10-07T05:27:04.840Z,2.83
2022-10-07T05:29:33.956Z,3.42
2022-10-07T05:32:05.076Z,3.92
2022-10-07T05:37:02.594Z,2.92
2022-10-07T05:39:30.774Z,3.55
2022-10-07T05:42:08.171Z,2.92
2022-10-07T05:44:43.116Z,3.58
2022-10-07T05:47:14.153Z,3.72
2022-10-07T05:49:43.099Z,3.35
2022-10-07T05:52:11.480Z,3.20
2022-10-07T05:54:40.433Z,3.65
2022-10-07T05:57:10.984Z,4.00
2022-10-07T05:59:39.242Z,3.83
2022-10-07T06:02:07.869Z,3.33
2022-10-07T06:04:37.180Z,3.28
2022-10-07T06:07:08.266Z,3.15
2022-10-07T06:09:54.696Z,3.40
2022-10-07T06:12:42.241Z,3.40
2022-10-07T06:15:14.006Z,3.25
2022-10-07T06:17:46.356Z,3.08
2022-10-07T06:20:18.618Z,3.53
2022-10-07T06:22:47.789Z,2.88
2022-10-07T06:25:17.697Z,3.55
2022-10-07T06:27:53.893Z,3.42
2022-10-07T06:30:23.125Z,3.10
2022-10-07T06:32:51.669Z,3.45
2022-10-07T06:35:20.445Z,4.07
2022-10-07T06:37:51.137Z,3.60
2022-10-07T06:40:19.406Z,3.70
2022-10-07T06:42:49.038Z,3.38
2022-10-07T06:45:25.835Z,4.28
2022-10-07T06:47:55.301Z,3.90
2022-10-07T06:50:25.081Z,3.53
2022-10-07T06:52:53.823Z,3.38
2022-10-07T06:55:22.290Z,3.72
2022-10-07T06:57:51.917Z,3.65
2022-10-07T07:00:22.064Z,3.53
2022-10-07T07:02:50.812Z,3.67
2022-10-07T07:05:19.330Z,3.72
2022-10-07T07:07:49.209Z,3.38
2022-10-07T07:10:18.180Z,4.28
2022-10-07T07:12:53.806Z,3.70
2022-10-07T07:17:50.830Z,3.00
2022-10-07T07:20:19.797Z,3.78
2022-10-07T07:22:49.525Z,3.67
2022-10-07T07:25:18.142Z,3.20
2022-10-07T07:27:48.830Z,3.88
2022-10-07T07:30:23.126Z,3.60
2022-10-07T07:32:52.862Z,3.30
2022-10-07T07:35:21.194Z,2.97
2022-10-07T07:37:50.411Z,3.55
2022-10-07T07:40:21.124Z,2.45
2022-10-07T07:42:49.756Z,4.03
2022-10-07T07:45:19.749Z,3.40
2022-10-07T07:47:49.524Z,3.10
2022-10-07T07:50:20.802Z,3.67
2022-10-07T07:52:51.940Z,3.20
2022-10-07T07:55:24.714Z,4.60
2022-10-07T07:57:52.999Z,3.10
2022-10-07T08:00:22.704Z,3.17
2022-10-07T08:03:01.923Z,2.92
2022-10-07T08:05:30.739Z,3.20
2022-10-07T08:08:00.828Z,3.40
2022-10-07T08:10:30.150Z,3.20
2022-10-07T08:12:58.399Z,3.10
2022-10-07T08:15:28.265Z,2.50
2022-10-07T08:17:57.128Z,2.45
2022-10-07T08:20:25.464Z,2.17
2022-10-07T08:22:58.283Z,2.13
2022-10-07T08:25:29.578Z,3.10
2022-10-07T08:27:59.843Z,1.67
2022-10-07T08:30:29.989Z,2.20
2022-10-07T08:33:01.317Z,2.20
2022-10-07T08:35:29.815Z,1.85
2022-10-07T08:37:57.963Z,2.22
2022-10-07T08:40:26.215Z,2.08
2022-10-07T08:42:55.134Z,1.90
2022-10-07T08:45:32.691Z,1.73
2022-10-07T08:48:05.903Z,1.80
2022-10-07T08:50:48.147Z,1.80
2022-10-07T08:53:22.279Z,1.90
2022-10-07T08:55:55.822Z,1.52
2022-10-07T08:58:52.740Z,1.65
2022-10-07T09:01:36.331Z,1.70
2022-10-07T09:04:21.720Z,1.45
2022-10-07T09:06:57.300Z,2.00
2022-10-07T09:09:30.448Z,2.03
2022-10-07T09:12:00.926Z,2.35
2022-10-07T09:14:32.995Z,2.05
2022-10-07T09:17:11.180Z,1.90
2022-10-07T09:19:45.028Z,2.25
2022-10-07T09:22:21.311Z,1.77
2022-10-07T09:24:53.120Z,1.55
2022-10-07T09:27:23.082Z,1.70
2022-10-07T09:29:51.831Z,2.03
2022-10-07T09:32:21.653Z,1.80
2022-10-07T09:34:49.957Z,1.73
2022-10-07T09:37:22.468Z,1.92
2022-10-07T09:39:52.685Z,1.65
2022-10-07T09:42:35.034Z,1.38
2022-10-07T09:45:18.532Z,1.80
2022-10-07T09:47:54.095Z,1.42
2022-10-07T09:50:38.037Z,1.67
2022-10-07T09:53:17.872Z,1.60
2022-10-07T09:55:46.776Z,1.33
2022-10-07T09:58:22.190Z,1.52
2022-10-07T10:00:52.357Z,1.85
2022-10-07T10:03:22.880Z,1.48
2022-10-07T10:05:58.533Z,1.60
2022-10-07T10:08:30.228Z,1.45
2022-10-07T10:13:33.097Z,1.80
2022-10-07T10:16:02.834Z,1.33
2022-10-07T10:18:40.063Z,1.67
2022-10-07T10:21:25.202Z,1.35
2022-10-07T10:23:56.649Z,1.35
2022-10-07T10:26:56.036Z,1.70
2022-10-07T10:29:46.920Z,1.60
2022-10-07T10:32:48.832Z,1.70
2022-10-07T10:38:21.976Z,1.00
2022-10-07T10:41:04.740Z,2.20
2022-10-07T10:43:45.579Z,1.90
2022-10-07T10:46:39.578Z,1.98
2022-10-07T10:49:22.304Z,1.50
2022-10-07T10:52:15.133Z,1.48
2022-10-07T10:55:02.108Z,1.95
2022-10-07T10:57:45.265Z,1.70
2022-10-07T11:00:15.959Z,1.98
2022-10-07T11:03:24.997Z,1.83
2022-10-07T11:05:55.768Z,1.60
2022-10-07T11:08:37.635Z,1.63
2022-10-07T11:11:12.192Z,1.35
2022-10-07T11:13:46.843Z,2.65
2022-10-07T11:16:20.754Z,1.17
2022-10-07T11:18:55.561Z,1.35
2022-10-07T11:21:30.960Z,2.03
2022-10-07T11:24:04.904Z,1.58
2022-10-07T11:26:40.868Z,1.85
2022-10-07T11:29:24.747Z,1.60
2022-10-07T11:32:04.088Z,1.73
2022-10-07T11:34:43.070Z,1.45
2022-10-07T11:37:20.308Z,2.03
2022-10-07T11:39:50.879Z,1.30
2022-10-07T11:42:24.139Z,1.90
2022-10-07T11:45:00.275Z,1.90
2022-10-07T11:47:35.621Z,2.30
2022-10-07T11:50:10.641Z,1.48
2022-10-07T11:52:45.733Z,4.57
2022-10-07T11:55:26.596Z,1.40
2022-10-07T11:57:59.659Z,1.30
2022-10-07T12:00:31.706Z,1.80
2022-10-07T12:03:14.448Z,1.50
2022-10-07T12:06:11.739Z,1.85
2022-10-07T12:08:42.151Z,2.33
2022-10-07T12:11:51.579Z,1.55
2022-10-07T12:14:33.516Z,1.35
2022-10-07T12:17:20.681Z,2.05
2022-10-07T12:20:08.916Z,1.75
2022-10-07T12:22:39.175Z,1.75
2022-10-07T12:25:32.457Z,2.10
2022-10-07T12:28:01.596Z,2.40
2022-10-07T12:30:49.987Z,1.77
2022-10-07T12:33:33.929Z,2.03
2022-10-07T12:36:27.710Z,1.73
2022-10-07T12:39:37.214Z,1.88
2022-10-07T12:42:09.482Z,1.45
2022-10-07T12:44:45.470Z,1.85
2022-10-07T12:47:22.545Z,1.30
2022-10-07T12:49:54.562Z,1.60
2022-10-07T12:52:34.627Z,2.53
2022-10-07T12:55:09.766Z,1.65
2022-10-07T12:57:41.969Z,2.20
2022-10-07T13:00:15.874Z,1.48
2022-10-07T13:03:50.730Z,1.58
2022-10-07T13:07:05.087Z,1.45
2022-10-07T13:10:10.893Z,1.65
2022-10-07T13:12:51.233Z,1.67
2022-10-07T13:15:31.690Z,1.77
2022-10-07T13:18:11.017Z,1.52
2022-10-07T13:21:09.254Z,1.50
2022-10-07T13:23:38.317Z,1.27
2022-10-07T13:26:08.674Z,1.55
2022-10-07T13:28:47.510Z,1.58
2022-10-07T13:31:23.887Z,1.45
2022-10-07T13:33:54.533Z,2.10
2022-10-07T13:36:26.501Z,2.30
2022-10-07T13:39:11.179Z,1.52
2022-10-07T13:41:47.336Z,2.10
2022-10-07T13:44:19.251Z,1.50
2022-10-07T13:46:56.080Z,1.63
2022-10-07T13:49:28.757Z,1.25
2022-10-07T13:51:59.460Z,1.35
2022-10-07T13:54:31.604Z,1.50
2022-10-07T13:57:02.465Z,1.65
2022-10-07T13:59:36.693Z,1.52
2022-10-07T14:02:05.738Z,1.52
2022-10-07T14:04:35.860Z,1.40
2022-10-07T14:07:17.524Z,1.63
2022-10-07T14:09:48.791Z,1.90
2022-10-07T14:12:22.856Z,1.73
2022-10-07T14:14:55.854Z,1.70
2022-10-07T14:17:32.517Z,1.70
2022-10-07T14:20:05.634Z,1.88
2022-10-07T14:22:38.685Z,1.45
2022-10-07T14:25:18.543Z,1.95
2022-10-07T14:28:09.170Z,1.83
2022-10-07T14:30:57.413Z,1.48
2022-10-07T14:33:59.110Z,1.48
2022-10-07T14:36:28.278Z,1.60
2022-10-07T14:39:01.777Z,2.25
2022-10-07T14:41:31.681Z,2.03
2022-10-07T14:44:04.188Z,1.58
2022-10-07T14:46:32.506Z,1.58
2022-10-07T14:49:00.804Z,1.30
2022-10-07T14:51:29.897Z,1.80
2022-10-07T14:54:05.198Z,1.20
2022-10-07T14:56:36.708Z,1.10
2022-10-07T14:59:11.631Z,1.63
2022-10-07T15:01:39.847Z,1.60
2022-10-07T15:04:08.139Z,0.98
2022-10-07T15:06:37.186Z,1.55
2022-10-07T15:09:05.967Z,1.23
2022-10-07T15:11:35.874Z,1.58
2022-10-07T15:14:05.509Z,1.50
2022-10-07T15:16:34.285Z,1.42
2022-10-07T15:19:03.146Z,1.27
2022-10-07T15:21:31.637Z,1.30
2022-10-07T15:24:01.752Z,1.52
2022-10-07T15:26:31.060Z,1.48
2022-10-07T15:29:00.595Z,1.50
2022-10-07T15:31:30.770Z,1.08
2022-10-07T15:33:59.061Z,1.20
2022-10-07T15:36:29.614Z,1.50
2022-10-07T15:39:01.855Z,1.40
2022-10-07T15:41:34.268Z,1.30
2022-10-07T15:44:05.407Z,1.30
2022-10-07T15:46:35.458Z,1.27
2022-10-07T15:49:04.516Z,1.23
2022-10-07T15:51:33.191Z,1.50
2022-10-07T15:54:01.533Z,1.30
2022-10-07T15:56:30.314Z,1.38
2022-10-07T15:59:00.530Z,1.38
2022-10-07T16:01:31.862Z,1.27
2022-10-07T16:04:03.920Z,1.48
2022-10-07T16:06:34.631Z,2.17
2022-10-07T16:09:04.679Z,2.38
2022-10-07T16:11:34.863Z,2.03
2022-10-07T16:14:04.279Z,3.63
2022-10-07T16:16:33.583Z,2.83
2022-10-07T16:19:03.669Z,2.10
2022-10-07T16:21:34.229Z,1.98
2022-10-07T16:24:05.151Z,2.40
2022-10-07T16:26:35.773Z,1.77
2022-10-07T16:29:24.643Z,2.50
2022-10-07T16:31:58.306Z,2.03
2022-10-07T16:34:29.460Z,1.50
2022-10-07T16:36:58.797Z,1.40
2022-10-07T16:39:27.368Z,1.52
2022-10-07T16:41:56.591Z,1.45
2022-10-07T16:44:25.641Z,2.17
2022-10-07T16:46:56.742Z,1.95
2022-10-07T16:49:27.601Z,2.72
2022-10-07T16:51:58.144Z,2.38
2022-10-07T16:54:29.793Z,2.22
2022-10-07T16:56:58.440Z,1.92
2022-10-07T16:59:26.942Z,1.85
2022-10-07T17:02:00.105Z,2.30
2022-10-07T17:04:29.107Z,2.45
2022-10-07T17:06:58.870Z,2.40
2022-10-07T17:09:27.035Z,2.92
2022-10-07T17:11:56.754Z,2.47
2022-10-07T17:14:24.977Z,2.20
2022-10-07T17:16:56.936Z,2.67
2022-10-07T17:19:27.875Z,2.50
2022-10-07T17:21:59.549Z,2.03
2022-10-07T17:24:28.312Z,2.42
2022-10-07T17:26:56.816Z,2.75
2022-10-07T17:29:26.341Z,3.40
2022-10-07T17:31:55.178Z,3.80
2022-10-07T17:34:24.109Z,3.95
2022-10-07T17:36:52.880Z,3.05
2022-10-07T17:39:22.678Z,3.10
2022-10-07T17:41:51.190Z,3.65
2022-10-07T17:44:21.394Z,3.53
2022-10-07T17:46:50.168Z,3.95
2022-10-07T17:49:18.572Z,3.05
2022-10-07T17:51:46.850Z,3.58
2022-10-07T17:54:15.929Z,3.53
2022-10-07T17:56:46.890Z,3.17
2022-10-07T17:59:15.532Z,3.72
2022-10-07T18:01:45.000Z,4.25
2022-10-07T18:04:19.887Z,4.88
2022-10-07T18:06:50.590Z,5.07
2022-10-07T18:09:19.496Z,4.68
2022-10-07T18:12:06.636Z,5.13
2022-10-07T18:14:54.115Z,7.55
2022-10-07T18:17:24.539Z,8.40
2022-10-07T18:19:53.016Z,11.95
2022-10-07T18:22:21.405Z,10.65
2022-10-07T18:24:49.865Z,12.10
2022-10-07T18:27:21.719Z,10.40
2022-10-07T18:29:49.880Z,11.65
2022-10-07T18:32:18.077Z,9.65
2022-10-07T18:34:46.333Z,8.77
2022-10-07T18:37:15.066Z,8.88
2022-10-07T18:39:43.621Z,9.43
2022-10-07T18:42:11.863Z,8.45
2022-10-07T18:44:41.706Z,9.05
2022-10-07T18:47:10.039Z,9.63
2022-10-07T18:49:38.576Z,8.38
2022-10-07T18:52:07.354Z,7.72
2022-10-07T18:54:35.535Z,8.13
2022-10-07T18:57:04.373Z,6.93
2022-10-07T18:59:32.947Z,7.20
2022-10-07T19:02:02.557Z,7.78
2022-10-07T19:04:31.470Z,6.95
2022-10-07T19:06:59.991Z,6.63
2022-10-07T19:09:28.519Z,6.82
2022-10-07T19:11:56.767Z,7.97
2022-10-07T19:14:25.974Z,7.97
2022-10-07T19:16:54.427Z,6.85
2022-10-07T19:19:26.200Z,7.22
2022-10-07T19:21:57.427Z,7.72
2022-10-07T19:24:45.615Z,7.97
2022-10-07T19:27:14.225Z,8.75
2022-10-07T19:29:42.431Z,8.23
2022-10-07T19:32:10.737Z,7.85
2022-10-07T19:34:40.273Z,7.75
2022-10-07T19:37:08.452Z,9.27
2022-10-07T19:39:37.025Z,8.63
2022-10-07T19:42:05.603Z,10.00
2022-10-07T19:44:34.308Z,7.35
2022-10-07T19:47:04.156Z,7.35
2022-10-07T19:49:32.427Z,8.25
2022-10-07T19:52:02.274Z,9.07
2022-10-07T19:54:35.729Z,8.60
2022-10-07T19:57:04.209Z,11.77
2022-10-07T19:59:32.492Z,12.90
2022-10-07T20:02:01.385Z,10.60
2022-10-07T20:04:30.432Z,11.57
2022-10-07T20:06:58.995Z,9.65
2022-10-07T20:09:28.546Z,9.93
2022-10-07T20:11:56.755Z,8.68
2022-10-07T20:14:24.920Z,7.35
2022-10-07T20:16:54.989Z,8.10
2022-10-07T20:19:23.650Z,7.88
2022-10-07T20:21:51.894Z,8.95
2022-10-07T20:24:20.145Z,8.48
2022-10-07T20:26:49.719Z,8.20
2022-10-07T20:29:21.438Z,7.13
2022-10-07T20:31:52.351Z,7.25
2022-10-07T20:34:20.755Z,8.20
2022-10-07T20:36:50.379Z,7.60
2022-10-07T20:39:37.739Z,7.95
2022-10-07T20:42:22.396Z,7.55
2022-10-07T20:44:51.598Z,7.53
2022-10-07T20:47:21.747Z,8.80
2022-10-07T20:49:51.751Z,8.02
2022-10-07T20:52:22.504Z,8.10
2022-10-07T20:54:52.243Z,8.02
2022-10-07T20:57:24.215Z,8.40
2022-10-07T20:59:52.766Z,8.25
2022-10-07T21:02:24.001Z,9.13
2022-10-07T21:04:52.253Z,7.33
2022-10-07T21:07:21.254Z,7.32
2022-10-07T21:09:49.704Z,7.68
2022-10-07T21:12:19.305Z,8.10
2022-10-07T21:14:49.861Z,8.45
2022-10-07T21:17:18.101Z,7.18
2022-10-07T21:19:46.263Z,7.47
2022-10-07T21:22:14.480Z,8.00
2022-10-07T21:24:43.031Z,7.80
2022-10-07T21:27:11.527Z,7.43
2022-10-07T21:29:41.404Z,7.22
2022-10-07T21:32:12.482Z,7.45
2022-10-07T21:34:40.772Z,6.80
2022-10-07T21:37:08.961Z,7.60
2022-10-07T21:39:38.115Z,7.03
2022-10-07T21:42:06.501Z,6.97
2022-10-07T21:44:35.591Z,7.35
2022-10-07T21:47:05.002Z,6.78
2022-10-07T21:49:34.677Z,7.30
2022-10-07T21:52:02.873Z,7.60
2022-10-07T21:54:31.274Z,6.53
2022-10-07T21:56:59.474Z,6.05
2022-10-07T21:59:27.649Z,6.13
2022-10-07T22:01:55.911Z,6.97
2022-10-07T22:04:24.916Z,6.22
2022-10-07T22:07:11.850Z,6.10
2022-10-07T22:09:40.027Z,6.15
2022-10-07T22:12:08.817Z,5.82
2022-10-07T22:14:37.010Z,7.10
2022-10-07T22:17:05.467Z,6.68
2022-10-07T22:19:33.972Z,6.90
2022-10-07T22:22:04.569Z,6.57
2022-10-07T22:24:32.919Z,6.72
2022-10-07T22:27:03.585Z,6.80
2022-10-07T22:29:31.902Z,7.28
2022-10-07T22:32:00.177Z,7.13
2022-10-07T22:34:45.623Z,7.03
2022-10-07T22:37:15.374Z,6.80
2022-10-07T22:39:43.909Z,7.65
2022-10-07T22:42:12.333Z,6.78
2022-10-07T22:44:40.521Z,6.50
2022-10-07T22:47:08.696Z,6.10
2022-10-07T22:49:36.895Z,6.28
2022-10-07T22:52:05.044Z,6.07
2022-10-07T22:54:34.589Z,5.95
2022-10-07T22:57:02.911Z,6.32
2022-10-07T22:59:31.108Z,5.78
2022-10-07T23:01:59.328Z,6.75
2022-10-07T23:04:27.510Z,6.25
2022-10-07T23:06:55.691Z,5.63
2022-10-07T23:09:23.859Z,5.25
2022-10-07T23:11:53.453Z,5.60
2022-10-07T23:14:21.985Z,5.75
2022-10-07T23:16:51.241Z,5.32
2022-10-07T23:19:19.475Z,5.47
2022-10-07T23:21:48.574Z,5.15
2022-10-07T23:24:16.887Z,4.90
2022-10-07T23:26:46.531Z,4.82
2022-10-07T23:29:16.518Z,4.20
2022-10-07T23:31:45.286Z,4.93
2022-10-07T23:34:14.773Z,4.57
2022-10-07T23:36:42.951Z,4.60
2022-10-07T23:39:11.564Z,4.13
2022-10-07T23:41:39.947Z,4.63
2022-10-07T23:44:08.100Z,4.75
2022-10-07T23:46:37.813Z,5.30
2022-10-07T23:49:06.650Z,5.32
2022-10-07T23:51:35.132Z,5.15
2022-10-07T23:54:05.171Z,5.07
2022-10-07T23:56:33.773Z,5.13
2022-10-07T23:59:02.660Z,5.30
